Oban, United Kingdom
Current Conditions -  °F | °C
As of 9:50 PM on Sunday 25 Jan 2015 (Local Time) from EGPU Reporting Station
Broken Clouds Broken Clouds  
Wind Chill: 39°   Ceiling: 4500
Heat Index: 45°   Visibility: 6mi
Dew Point: 39°   Wind: 12mph
Humidity: 81%   Direction: 270°W
Pressure: 29.97"   Gusts: NA
Location:  56.41°N, 5.47°W
Report Text: EGPU 252150Z AUTO 27010KT 230V300 9999 FEW035/// BKN045/// 07/04 Q1015
Loading
Personal Weather Stations






























Interactive Weather Map New forecast layout! Learn more

10-Day Weather Forecast

Advertisements
Track Severe Weather on mobile